createdAt,value
2018-06-14T00:01:42.264Z,2.70
2018-06-14T00:04:10.573Z,2.43
2018-06-14T00:06:38.574Z,3.03
2018-06-14T00:09:08.190Z,2.30
2018-06-14T00:11:36.250Z,3.00
2018-06-14T00:14:04.704Z,2.30
2018-06-14T00:16:32.762Z,3.47
2018-06-14T00:19:00.841Z,2.47
2018-06-14T00:21:28.892Z,3.23
2018-06-14T00:23:56.947Z,2.50
2018-06-14T00:26:25.010Z,2.60
2018-06-14T00:28:53.065Z,2.87
2018-06-14T00:31:21.165Z,2.30
2018-06-14T00:33:49.197Z,2.30
2018-06-14T00:36:17.562Z,2.20
2018-06-14T00:38:45.601Z,2.50
2018-06-14T00:41:13.666Z,2.20
2018-06-14T00:43:41.521Z,1.90
2018-06-14T00:46:09.570Z,2.30
2018-06-14T00:48:37.641Z,2.23
2018-06-14T00:51:05.726Z,2.50
2018-06-14T00:53:33.758Z,2.80
2018-06-14T00:56:01.859Z,2.00
2018-06-14T00:58:29.954Z,2.63
2018-06-14T01:00:58.007Z,2.70
2018-06-14T01:03:26.069Z,3.07
2018-06-14T01:05:54.139Z,2.67
2018-06-14T01:08:22.192Z,2.77
2018-06-14T01:10:50.263Z,3.10
2018-06-14T01:13:18.300Z,3.27
2018-06-14T01:15:46.365Z,2.80
2018-06-14T01:18:14.457Z,3.13
2018-06-14T01:20:42.613Z,3.00
2018-06-14T01:23:10.524Z,3.80
2018-06-14T01:25:38.598Z,2.70
2018-06-14T01:28:06.664Z,2.73
2018-06-14T01:30:35.124Z,2.60
2018-06-14T01:33:03.398Z,2.80
2018-06-14T01:35:31.462Z,2.53
2018-06-14T01:38:12.097Z,3.40
2018-06-14T01:40:40.150Z,3.10
2018-06-14T01:43:08.193Z,2.53
2018-06-14T01:45:36.241Z,2.63
2018-06-14T01:48:04.317Z,3.70
2018-06-14T01:50:32.361Z,3.20
2018-06-14T01:53:00.466Z,2.90
2018-06-14T01:55:28.454Z,2.97
2018-06-14T01:57:56.509Z,3.03
2018-06-14T02:00:24.563Z,2.90
2018-06-14T02:02:52.666Z,2.77
2018-06-14T02:05:20.916Z,2.60
2018-06-14T02:07:48.952Z,2.77
2018-06-14T02:10:17.018Z,2.60
2018-06-14T02:12:45.077Z,3.30
2018-06-14T02:15:13.169Z,2.50
2018-06-14T02:17:41.221Z,3.50
2018-06-14T02:20:09.282Z,3.30
2018-06-14T02:22:37.337Z,3.30
2018-06-14T02:25:05.606Z,3.50
2018-06-14T02:27:34.249Z,3.80
2018-06-14T02:30:02.286Z,3.60
2018-06-14T02:32:30.554Z,3.30
2018-06-14T02:34:58.598Z,3.70
2018-06-14T02:37:26.853Z,3.27
2018-06-14T02:39:54.885Z,3.87
2018-06-14T02:42:22.970Z,3.07
2018-06-14T02:44:51.066Z,3.97
2018-06-14T02:47:19.433Z,3.87
2018-06-14T02:49:47.470Z,3.80
2018-06-14T02:52:15.581Z,3.93
2018-06-14T02:54:43.622Z,3.70
2018-06-14T02:57:11.496Z,3.80
2018-06-14T02:59:39.571Z,4.60
2018-06-14T03:02:07.673Z,3.73
2018-06-14T03:04:35.709Z,3.80
2018-06-14T03:07:05.382Z,3.57
2018-06-14T03:09:33.486Z,4.10
2018-06-14T03:12:01.827Z,4.00
2018-06-14T03:14:29.893Z,4.27
2018-06-14T03:16:57.954Z,4.63
2018-06-14T03:19:25.998Z,4.13
2018-06-14T03:21:54.252Z,3.97
2018-06-14T03:24:22.485Z,4.40
2018-06-14T03:26:50.541Z,4.83
2018-06-14T03:29:18.745Z,4.30
2018-06-14T03:31:46.838Z,4.13
2018-06-14T03:34:14.881Z,4.07
2018-06-14T03:36:42.941Z,4.57
2018-06-14T03:39:11.002Z,4.57
2018-06-14T03:41:39.065Z,3.97
2018-06-14T03:44:07.149Z,4.20
2018-06-14T03:46:35.204Z,4.27
2018-06-14T03:49:03.250Z,4.30
2018-06-14T03:51:31.289Z,4.60
2018-06-14T03:53:59.386Z,3.90
2018-06-14T03:56:27.522Z,4.23
2018-06-14T03:58:56.110Z,5.17
2018-06-14T04:01:24.178Z,4.97
2018-06-14T04:03:52.226Z,5.40
2018-06-14T04:06:20.304Z,5.10
2018-06-14T04:08:48.375Z,5.90
2018-06-14T04:11:16.425Z,5.20
2018-06-14T04:13:44.493Z,5.83
2018-06-14T04:16:12.528Z,5.20
2018-06-14T04:18:40.642Z,5.50
2018-06-14T04:21:08.650Z,5.40
2018-06-14T04:23:36.734Z,4.80
2018-06-14T04:26:04.797Z,4.13
2018-06-14T04:28:32.850Z,5.00
2018-06-14T04:31:00.911Z,5.17
2018-06-14T04:33:28.969Z,4.50
2018-06-14T04:35:57.032Z,4.47
2018-06-14T04:38:25.101Z,5.17
2018-06-14T04:40:53.339Z,5.60
2018-06-14T04:43:21.394Z,5.23
2018-06-14T04:45:49.505Z,5.00
2018-06-14T04:48:17.512Z,5.53
2018-06-14T04:50:45.572Z,5.17
2018-06-14T04:53:13.616Z,4.17
2018-06-14T04:55:41.678Z,5.07
2018-06-14T04:58:09.730Z,5.27
2018-06-14T05:00:37.793Z,3.97
2018-06-14T05:03:06.298Z,4.23
2018-06-14T05:05:34.379Z,4.20
2018-06-14T05:08:02.454Z,4.60
2018-06-14T05:10:30.510Z,4.60
2018-06-14T05:12:58.577Z,4.17
2018-06-14T05:15:26.621Z,5.10
2018-06-14T05:17:54.679Z,4.90
2018-06-14T05:20:22.786Z,4.70
2018-06-14T05:22:50.974Z,4.70
2018-06-14T05:25:19.050Z,4.83
2018-06-14T05:27:47.265Z,5.67
2018-06-14T05:30:15.366Z,4.90
2018-06-14T05:32:43.432Z,5.30
2018-06-14T05:35:11.538Z,4.30
2018-06-14T05:37:39.365Z,4.73
2018-06-14T05:40:07.401Z,4.67
2018-06-14T05:42:35.466Z,4.80
2018-06-14T05:45:03.497Z,4.90
2018-06-14T05:47:31.593Z,4.53
2018-06-14T05:49:59.693Z,4.90
2018-06-14T05:52:27.750Z,5.80
2018-06-14T05:54:55.818Z,5.20
2018-06-14T05:57:23.889Z,5.10
2018-06-14T05:59:51.941Z,4.50
2018-06-14T06:02:20.010Z,5.60
2018-06-14T06:04:48.065Z,4.77
2018-06-14T06:07:17.037Z,4.93
2018-06-14T06:09:45.104Z,4.40
2018-06-14T06:12:13.441Z,5.00
2018-06-14T06:14:41.506Z,5.50
2018-06-14T06:17:09.569Z,5.23
2018-06-14T06:19:37.633Z,6.23
2018-06-14T06:22:05.689Z,5.13
2018-06-14T06:24:33.753Z,4.83
2018-06-14T06:27:01.930Z,4.80
2018-06-14T06:29:30.173Z,4.47
2018-06-14T06:31:58.345Z,5.00
2018-06-14T06:34:26.420Z,4.70
2018-06-14T06:36:54.513Z,5.63
2018-06-14T06:39:22.581Z,5.20
2018-06-14T06:41:50.660Z,4.50
2018-06-14T06:44:18.751Z,5.37
2018-06-14T06:46:46.845Z,6.10
2018-06-14T06:49:15.610Z,5.23
2018-06-14T06:51:43.653Z,4.83
2018-06-14T06:54:11.742Z,5.33
2018-06-14T06:56:39.805Z,5.33
2018-06-14T06:59:07.850Z,5.40
2018-06-14T07:01:35.922Z,5.00
2018-06-14T07:04:04.046Z,5.67
2018-06-14T07:06:32.163Z,8.40
2018-06-14T07:09:00.241Z,6.70
2018-06-14T07:11:28.355Z,7.50
2018-06-14T07:13:56.406Z,6.30
2018-06-14T07:16:24.462Z,7.60
2018-06-14T07:18:52.764Z,8.70
2018-06-14T07:21:20.846Z,5.60
2018-06-14T07:23:48.903Z,5.47
2018-06-14T07:26:16.984Z,5.60
2018-06-14T07:28:45.043Z,5.43
2018-06-14T07:31:13.141Z,5.40
2018-06-14T07:33:41.398Z,5.50
2018-06-14T07:36:09.468Z,5.93
2018-06-14T07:38:37.523Z,4.70
2018-06-14T07:41:05.574Z,5.43
2018-06-14T07:43:34.215Z,5.57
2018-06-14T07:46:02.317Z,6.17
2018-06-14T07:48:30.382Z,5.73
2018-06-14T07:50:58.457Z,6.40
2018-06-14T07:53:26.537Z,5.83
2018-06-14T07:55:54.634Z,6.40
2018-06-14T07:58:22.748Z,5.53
2018-06-14T08:00:50.821Z,6.00
2018-06-14T08:03:18.898Z,5.90
2018-06-14T08:05:46.945Z,6.30
2018-06-14T08:08:14.998Z,6.00
2018-06-14T08:10:43.055Z,6.60
2018-06-14T08:13:11.106Z,7.13
2018-06-14T08:15:39.184Z,6.90
2018-06-14T08:18:07.288Z,6.40
2018-06-14T08:20:35.398Z,7.10
2018-06-14T08:23:03.841Z,6.20
2018-06-14T08:25:31.885Z,6.50
2018-06-14T08:28:00.161Z,7.00
2018-06-14T08:30:28.215Z,6.80
2018-06-14T08:32:56.295Z,6.23
2018-06-14T08:35:24.430Z,7.17
2018-06-14T08:37:52.498Z,6.00
2018-06-14T08:40:20.556Z,6.93
2018-06-14T08:42:48.626Z,7.47
2018-06-14T08:45:16.707Z,6.10
2018-06-14T08:47:44.769Z,8.50
2018-06-14T08:50:12.805Z,7.17
2018-06-14T08:52:40.644Z,7.10
2018-06-14T08:55:08.714Z,6.73
2018-06-14T08:57:36.766Z,6.77
2018-06-14T09:00:05.139Z,7.23
2018-06-14T09:02:33.245Z,7.50
2018-06-14T09:05:01.321Z,7.43
2018-06-14T09:07:29.378Z,6.13
2018-06-14T09:09:57.447Z,5.83
2018-06-14T09:12:25.289Z,7.20
2018-06-14T09:14:53.610Z,8.63
2018-06-14T09:17:21.765Z,6.70
2018-06-14T09:19:49.834Z,6.57
2018-06-14T09:22:18.057Z,6.40
2018-06-14T09:24:46.102Z,6.23
2018-06-14T09:27:14.481Z,5.63
2018-06-14T09:29:42.529Z,6.27
2018-06-14T09:32:10.595Z,5.73
2018-06-14T09:34:38.951Z,6.13
2018-06-14T09:37:07.017Z,4.80
2018-06-14T09:39:35.120Z,6.57
2018-06-14T09:42:03.206Z,6.00
2018-06-14T09:44:31.287Z,5.20
2018-06-14T09:46:59.371Z,5.60
2018-06-14T09:49:27.502Z,5.83
2018-06-14T09:51:55.529Z,6.20
2018-06-14T09:54:23.565Z,6.60
2018-06-14T09:56:51.626Z,6.57
2018-06-14T09:59:19.718Z,6.80
2018-06-14T10:01:47.781Z,5.93
2018-06-14T10:04:15.841Z,7.37
2018-06-14T10:06:43.881Z,7.13
2018-06-14T10:09:12.771Z,6.00
2018-06-14T10:11:40.765Z,5.53
2018-06-14T10:14:09.493Z,5.53
2018-06-14T10:16:37.594Z,6.37
2018-06-14T10:19:05.770Z,6.30
2018-06-14T10:21:33.866Z,6.23
2018-06-14T10:24:02.227Z,5.13
2018-06-14T10:26:30.305Z,5.47
2018-06-14T10:28:58.340Z,4.93
2018-06-14T10:31:26.430Z,5.03
2018-06-14T10:33:54.613Z,5.70
2018-06-14T10:36:22.678Z,6.60
2018-06-14T10:38:51.041Z,5.07
2018-06-14T10:41:19.103Z,5.13
2018-06-14T10:43:47.167Z,5.17
2018-06-14T10:46:15.227Z,5.07
2018-06-14T10:48:43.297Z,5.10
2018-06-14T10:51:11.362Z,5.10
2018-06-14T10:53:39.417Z,4.63
2018-06-14T10:56:07.490Z,4.47
2018-06-14T10:58:36.185Z,4.40
2018-06-14T11:01:04.250Z,4.87
2018-06-14T11:03:32.306Z,5.07
2018-06-14T11:06:00.418Z,5.43
2018-06-14T11:08:28.426Z,5.10
2018-06-14T11:10:56.511Z,4.97
2018-06-14T11:13:24.605Z,3.60
2018-06-14T11:15:52.724Z,5.00
2018-06-14T11:18:20.829Z,4.97
2018-06-14T11:20:49.121Z,4.90
2018-06-14T11:23:17.231Z,4.13
2018-06-14T11:25:45.305Z,5.10
2018-06-14T11:28:13.371Z,4.53
2018-06-14T11:30:41.466Z,4.60
2018-06-14T11:33:09.782Z,4.83
2018-06-14T11:35:37.859Z,3.50
2018-06-14T11:38:05.928Z,4.83
2018-06-14T11:40:33.977Z,3.83
2018-06-14T11:43:02.033Z,3.80
2018-06-14T11:45:30.078Z,4.43
2018-06-14T11:50:32.851Z,4.33
2018-06-14T11:53:00.877Z,4.30
2018-06-14T11:55:28.962Z,4.20
2018-06-14T11:57:57.010Z,3.63
2018-06-14T12:00:25.051Z,4.10
2018-06-14T12:02:53.107Z,3.93
2018-06-14T12:05:21.154Z,3.97
2018-06-14T12:07:49.230Z,4.03
2018-06-14T12:10:17.304Z,3.50
2018-06-14T12:12:45.419Z,3.90
2018-06-14T12:15:13.529Z,4.63
2018-06-14T12:17:41.530Z,3.70
2018-06-14T12:20:09.582Z,4.40
2018-06-14T12:22:37.654Z,4.60
2018-06-14T12:25:05.723Z,3.83
2018-06-14T12:27:33.817Z,3.87
2018-06-14T12:30:01.908Z,4.57
2018-06-14T12:32:29.957Z,4.50
2018-06-14T12:34:58.078Z,4.33
2018-06-14T12:37:26.121Z,5.10
2018-06-14T12:39:54.398Z,5.10
2018-06-14T12:42:22.544Z,5.40
2018-06-14T12:44:50.646Z,4.20
2018-06-14T12:47:18.712Z,6.27
2018-06-14T12:49:46.767Z,5.47
2018-06-14T12:52:14.871Z,5.60
2018-06-14T12:54:42.902Z,6.00
2018-06-14T12:57:10.957Z,6.40
2018-06-14T12:59:39.028Z,6.77
2018-06-14T13:02:07.091Z,8.00
2018-06-14T13:04:35.802Z,7.60
2018-06-14T13:07:03.874Z,6.40
2018-06-14T13:09:31.957Z,6.00
2018-06-14T13:11:59.992Z,6.63
2018-06-14T13:14:28.047Z,7.50
2018-06-14T13:16:56.129Z,6.63
2018-06-14T13:19:24.193Z,6.20
2018-06-14T13:21:52.239Z,6.67
2018-06-14T13:24:20.337Z,6.37
2018-06-14T13:26:48.438Z,7.13
2018-06-14T13:29:16.514Z,6.40
2018-06-14T13:31:44.589Z,6.30
2018-06-14T13:34:12.676Z,6.00
2018-06-14T13:36:40.786Z,6.10
2018-06-14T13:39:09.156Z,5.97
2018-06-14T13:41:37.237Z,5.00
2018-06-14T13:44:05.165Z,5.60
2018-06-14T13:46:33.317Z,5.03
2018-06-14T13:49:01.509Z,5.60
2018-06-14T13:51:29.517Z,4.63
2018-06-14T13:53:57.611Z,5.70
2018-06-14T13:56:25.653Z,4.93
2018-06-14T13:58:53.494Z,4.83
2018-06-14T14:01:21.621Z,4.93
2018-06-14T14:03:49.642Z,4.07
2018-06-14T14:06:17.758Z,5.20
2018-06-14T14:08:47.946Z,7.10
2018-06-14T14:11:16.027Z,5.57
2018-06-14T14:13:44.133Z,6.23
2018-06-14T14:16:12.183Z,4.30
2018-06-14T14:18:40.244Z,5.30
2018-06-14T14:21:08.507Z,4.27
2018-06-14T14:23:36.570Z,5.00
2018-06-14T14:26:04.696Z,4.50
2018-06-14T14:28:32.770Z,5.10
2018-06-14T14:31:00.825Z,4.87
2018-06-14T14:33:28.907Z,4.73
2018-06-14T14:35:56.999Z,4.73
2018-06-14T14:38:25.191Z,4.73
2018-06-14T14:40:53.245Z,4.43
2018-06-14T14:43:21.309Z,4.77
2018-06-14T14:45:49.443Z,4.07
2018-06-14T14:48:17.274Z,4.37
2018-06-14T14:50:45.341Z,4.27
2018-06-14T14:53:13.487Z,4.50
2018-06-14T14:55:41.673Z,4.30
2018-06-14T14:58:09.759Z,4.00
2018-06-14T15:00:37.882Z,4.17
2018-06-14T15:03:05.973Z,4.20
2018-06-14T15:05:34.034Z,3.83
2018-06-14T15:08:02.093Z,4.63
2018-06-14T15:10:30.171Z,4.43
2018-06-14T15:12:58.247Z,4.90
2018-06-14T15:15:26.335Z,4.00
2018-06-14T15:17:54.424Z,3.30
2018-06-14T15:20:22.534Z,3.73
2018-06-14T15:22:50.602Z,3.87
2018-06-14T15:25:18.674Z,4.47
2018-06-14T15:27:46.617Z,3.90
2018-06-14T15:30:14.904Z,4.50
2018-06-14T15:32:42.965Z,4.60
2018-06-14T15:35:11.011Z,4.00
2018-06-14T15:37:39.230Z,5.47
2018-06-14T15:40:07.302Z,4.20
2018-06-14T15:42:35.352Z,4.77
2018-06-14T15:45:03.413Z,5.23
2018-06-14T15:47:31.481Z,4.83
2018-06-14T15:49:59.550Z,4.43
2018-06-14T15:52:27.626Z,4.40
2018-06-14T15:55:07.166Z,3.67
2018-06-14T15:57:35.252Z,5.20
2018-06-14T16:00:03.373Z,4.40
2018-06-14T16:02:31.617Z,4.00
2018-06-14T16:04:59.694Z,5.87
2018-06-14T16:07:27.766Z,4.47
2018-06-14T16:09:55.860Z,9.97
2018-06-14T16:12:23.929Z,6.60
2018-06-14T16:14:51.990Z,3.90
2018-06-14T16:17:20.072Z,5.10
2018-06-14T16:19:48.114Z,5.17
2018-06-14T16:22:17.067Z,5.23
2018-06-14T16:24:45.348Z,5.10
2018-06-14T16:27:13.711Z,4.70
2018-06-14T16:29:41.781Z,6.67
2018-06-14T16:32:09.838Z,6.17
2018-06-14T16:34:38.220Z,5.07
2018-06-14T16:37:06.315Z,5.90
2018-06-14T16:39:34.427Z,5.47
2018-06-14T16:42:02.582Z,5.87
2018-06-14T16:44:30.619Z,6.00
2018-06-14T16:46:58.718Z,6.50
2018-06-14T16:49:26.818Z,8.20
2018-06-14T16:51:54.889Z,7.27
2018-06-14T16:54:22.947Z,8.13
2018-06-14T16:56:51.033Z,11.07
2018-06-14T16:59:19.084Z,11.97
2018-06-14T17:01:47.146Z,14.60
2018-06-14T17:04:15.297Z,17.10
2018-06-14T17:06:43.377Z,19.90
2018-06-14T17:09:11.439Z,22.23
2018-06-14T17:11:39.502Z,23.40
2018-06-14T17:14:07.568Z,24.00
2018-06-14T17:16:36.077Z,25.43
2018-06-14T17:19:04.156Z,25.57
2018-06-14T17:21:32.202Z,24.63
2018-06-14T17:24:00.282Z,26.60
2018-06-14T17:26:28.421Z,27.33
2018-06-14T17:28:56.854Z,26.17
2018-06-14T17:31:24.917Z,29.47
2018-06-14T17:33:52.982Z,29.40
2018-06-14T17:36:21.078Z,28.67
2018-06-14T17:38:49.144Z,28.57
2018-06-14T17:41:17.234Z,28.80
2018-06-14T17:43:45.280Z,29.90
2018-06-14T17:46:13.417Z,29.77
2018-06-14T17:48:41.480Z,27.23
2018-06-14T17:51:09.551Z,27.77
2018-06-14T17:53:37.653Z,25.50
2018-06-14T17:56:05.743Z,27.47
2018-06-14T17:58:33.618Z,25.40
2018-06-14T18:01:01.723Z,23.53
2018-06-14T18:03:29.770Z,23.67
2018-06-14T18:05:57.875Z,24.37
2018-06-14T18:08:25.941Z,22.80
2018-06-14T18:10:54.030Z,23.60
2018-06-14T18:13:22.100Z,23.80
2018-06-14T18:15:50.218Z,21.47
2018-06-14T18:18:18.353Z,21.63
2018-06-14T18:20:46.426Z,23.73
2018-06-14T18:23:14.498Z,23.27
2018-06-14T18:25:42.619Z,23.37
2018-06-14T18:28:10.747Z,22.83
2018-06-14T18:30:38.805Z,23.40
2018-06-14T18:33:06.897Z,23.70
2018-06-14T18:35:36.041Z,24.37
2018-06-14T18:38:04.228Z,23.30
2018-06-14T18:40:32.075Z,21.63
2018-06-14T18:43:00.244Z,20.77
2018-06-14T18:45:28.295Z,21.80
2018-06-14T18:47:56.414Z,23.00
2018-06-14T18:50:24.477Z,21.80
2018-06-14T18:52:52.546Z,22.00
2018-06-14T18:55:20.613Z,22.87
2018-06-14T18:57:48.712Z,23.20
2018-06-14T19:00:16.791Z,21.13
2018-06-14T19:02:44.873Z,21.03
2018-06-14T19:05:12.732Z,20.80
2018-06-14T19:07:41.019Z,20.70
2018-06-14T19:10:09.076Z,19.40
2018-06-14T19:12:37.142Z,19.13
2018-06-14T19:15:05.517Z,21.10
2018-06-14T19:17:33.607Z,18.23
2018-06-14T19:20:01.646Z,19.20
2018-06-14T19:22:29.631Z,19.50
2018-06-14T19:24:57.706Z,20.47
2018-06-14T19:27:25.795Z,20.20
2018-06-14T19:29:54.555Z,20.20
2018-06-14T19:32:22.614Z,19.50
2018-06-14T19:34:50.685Z,20.20
2018-06-14T19:37:18.749Z,21.77
2018-06-14T19:39:46.817Z,20.40
2018-06-14T19:42:14.927Z,21.47
2018-06-14T19:44:43.038Z,20.97
2018-06-14T19:47:11.112Z,21.13
2018-06-14T19:49:39.918Z,19.73
2018-06-14T19:52:08.005Z,20.13
2018-06-14T19:54:37.110Z,21.00
2018-06-14T19:57:05.508Z,20.17
2018-06-14T19:59:34.511Z,19.23
2018-06-14T20:02:02.438Z,19.20
2018-06-14T20:04:30.535Z,19.10
2018-06-14T20:06:58.609Z,19.60
2018-06-14T20:09:26.679Z,19.00
2018-06-14T20:11:54.762Z,17.83
2018-06-14T20:14:22.856Z,18.70
2018-06-14T20:16:50.926Z,20.17
2018-06-14T20:19:19.010Z,19.07
2018-06-14T20:21:47.054Z,16.10
2018-06-14T20:24:15.243Z,17.80
2018-06-14T20:26:43.299Z,16.53
2018-06-14T20:29:11.403Z,16.57
2018-06-14T20:31:39.490Z,17.50
2018-06-14T20:34:07.631Z,16.30
2018-06-14T20:36:35.846Z,15.63
2018-06-14T20:39:06.902Z,16.40
2018-06-14T20:41:35.038Z,15.40
2018-06-14T20:44:03.132Z,16.80
2018-06-14T20:46:31.208Z,17.07
2018-06-14T20:48:59.349Z,15.73
2018-06-14T20:51:27.400Z,16.00
2018-06-14T20:53:55.441Z,17.10
2018-06-14T20:56:23.505Z,16.33
2018-06-14T20:58:51.693Z,14.97
2018-06-14T21:01:19.738Z,15.07
2018-06-14T21:03:47.813Z,15.57
2018-06-14T21:06:16.377Z,15.90
2018-06-14T21:08:44.433Z,16.43
2018-06-14T21:11:12.486Z,16.90
2018-06-14T21:13:40.549Z,17.73
2018-06-14T21:16:08.598Z,17.27
2018-06-14T21:18:36.677Z,20.20
2018-06-14T21:21:04.796Z,16.37
2018-06-14T21:23:32.858Z,17.53
2018-06-14T21:26:00.905Z,18.83
2018-06-14T21:28:28.988Z,21.20
2018-06-14T21:30:56.985Z,19.37
2018-06-14T21:33:25.058Z,18.03
2018-06-14T21:35:53.109Z,17.63
2018-06-14T21:38:21.182Z,18.30
2018-06-14T21:40:49.226Z,19.57
2018-06-14T21:43:17.304Z,20.13
2018-06-14T21:45:45.364Z,18.73
2018-06-14T21:48:13.442Z,18.77
2018-06-14T21:50:41.513Z,20.53
2018-06-14T21:53:09.557Z,20.50
2018-06-14T21:55:37.634Z,19.60
2018-06-14T21:58:05.705Z,21.67
2018-06-14T22:00:33.786Z,21.60
2018-06-14T22:03:07.341Z,20.30
2018-06-14T22:05:35.422Z,21.27
2018-06-14T22:08:03.471Z,21.30
2018-06-14T22:10:31.539Z,20.30
2018-06-14T22:12:59.590Z,21.30
2018-06-14T22:15:27.646Z,20.90
2018-06-14T22:17:56.333Z,24.20
2018-06-14T22:20:24.401Z,23.70
2018-06-14T22:22:52.470Z,22.73
2018-06-14T22:25:20.553Z,22.97
2018-06-14T22:27:48.801Z,26.20
2018-06-14T22:30:16.865Z,23.50
2018-06-14T22:32:44.713Z,26.17
2018-06-14T22:35:21.330Z,24.90
2018-06-14T22:37:49.377Z,27.63
2018-06-14T22:40:17.435Z,26.63
2018-06-14T22:42:45.503Z,25.83
2018-06-14T22:45:13.578Z,27.73
2018-06-14T22:47:41.632Z,28.17
2018-06-14T22:50:09.717Z,26.43
2018-06-14T22:52:56.617Z,27.70
2018-06-14T22:55:25.396Z,27.33
2018-06-14T22:57:53.557Z,27.37
2018-06-14T23:00:33.350Z,27.07
2018-06-14T23:03:01.419Z,27.00
2018-06-14T23:05:29.475Z,26.53
2018-06-14T23:07:57.546Z,27.00
2018-06-14T23:10:43.210Z,28.97
2018-06-14T23:13:12.609Z,25.57
2018-06-14T23:15:40.678Z,26.60
2018-06-14T23:18:08.809Z,28.47
2018-06-14T23:20:37.133Z,27.97
2018-06-14T23:23:05.807Z,29.07
2018-06-14T23:25:34.304Z,26.60
2018-06-14T23:28:02.649Z,26.63
2018-06-14T23:30:30.818Z,26.97
2018-06-14T23:32:58.889Z,27.23
2018-06-14T23:35:26.986Z,27.30
2018-06-14T23:37:55.121Z,29.00
2018-06-14T23:40:23.329Z,28.63
2018-06-14T23:42:51.417Z,29.60
2018-06-14T23:45:19.473Z,27.20
2018-06-14T23:47:47.548Z,28.63
2018-06-14T23:50:15.634Z,28.63
2018-06-14T23:52:43.693Z,26.83
2018-06-14T23:55:11.742Z,28.60
2018-06-14T23:57:39.801Z,26.60
